sensor_id;sensor_type;location;lat;lon;timestamp;pressure;altitude;pressure_sealevel;temperature;humidity
62600;BME280;48671;48.922;2.346;2023-08-21T00:00:53;102115.09;;;26.02;44.49
62600;BME280;48671;48.922;2.346;2023-08-21T00:03:18;102107.50;;;25.98;43.75
62600;BME280;48671;48.922;2.346;2023-08-21T00:05:44;102119.97;;;25.97;44.19
62600;BME280;48671;48.922;2.346;2023-08-21T00:08:09;102118.50;;;25.93;44.27
62600;BME280;48671;48.922;2.346;2023-08-21T00:10:37;102110.66;;;25.91;44.27
62600;BME280;48671;48.922;2.346;2023-08-21T00:13:04;102093.91;;;25.89;44.21
62600;BME280;48671;48.922;2.346;2023-08-21T00:15:30;102103.75;;;25.89;44.32
62600;BME280;48671;48.922;2.346;2023-08-21T00:17:55;102108.63;;;25.84;43.91
62600;BME280;48671;48.922;2.346;2023-08-21T00:20:20;102099.91;;;25.71;44.56
62600;BME280;48671;48.922;2.346;2023-08-21T00:22:45;102105.72;;;25.64;45.19
62600;BME280;48671;48.922;2.346;2023-08-21T00:25:11;102097.00;;;25.62;44.67
62600;BME280;48671;48.922;2.346;2023-08-21T00:27:36;102091.31;;;25.56;44.63
62600;BME280;48671;48.922;2.346;2023-08-21T00:30:02;102099.31;;;25.56;44.84
62600;BME280;48671;48.922;2.346;2023-08-21T00:32:27;102095.66;;;25.57;44.54
62600;BME280;48671;48.922;2.346;2023-08-21T00:34:52;102087.81;;;25.44;45.18
62600;BME280;48671;48.922;2.346;2023-08-21T00:37:18;102095.09;;;25.42;45.30
62600;BME280;48671;48.922;2.346;2023-08-21T00:39:44;102090.25;;;25.36;45.43
62600;BME280;48671;48.922;2.346;2023-08-21T00:42:10;102088.78;;;25.43;45.41
62600;BME280;48671;48.922;2.346;2023-08-21T00:44:35;102091.44;;;25.43;44.78
62600;BME280;48671;48.922;2.346;2023-08-21T00:47:00;102094.13;;;25.32;45.02
62600;BME280;48671;48.922;2.346;2023-08-21T00:49:26;102096.53;;;25.23;45.46
62600;BME280;48671;48.922;2.346;2023-08-21T00:51:53;102100.78;;;25.26;45.55
62600;BME280;48671;48.922;2.346;2023-08-21T00:54:19;102107.22;;;25.35;45.37
62600;BME280;48671;48.922;2.346;2023-08-21T00:56:44;102104.91;;;25.41;45.56
62600;BME280;48671;48.922;2.346;2023-08-21T00:59:10;102102.59;;;25.48;45.58
62600;BME280;48671;48.922;2.346;2023-08-21T01:01:36;102094.59;;;25.48;44.98
62600;BME280;48671;48.922;2.346;2023-08-21T01:04:02;102100.03;;;25.58;44.95
62600;BME280;48671;48.922;2.346;2023-08-21T01:06:28;102098.94;;;25.60;45.38
62600;BME280;48671;48.922;2.346;2023-08-21T01:09:02;102098.22;;;25.58;44.73
62600;BME280;48671;48.922;2.346;2023-08-21T01:11:46;102102.59;;;25.48;44.92
62600;BME280;48671;48.922;2.346;2023-08-21T01:14:54;102096.19;;;25.28;45.20
62600;BME280;48671;48.922;2.346;2023-08-21T01:17:23;102101.50;;;25.17;45.17
62600;BME280;48671;48.922;2.346;2023-08-21T01:19:50;102105.38;;;25.13;45.68
62600;BME280;48671;48.922;2.346;2023-08-21T01:22:17;102104.53;;;25.12;45.61
62600;BME280;48671;48.922;2.346;2023-08-21T01:24:42;102108.25;;;25.10;45.70
62600;BME280;48671;48.922;2.346;2023-08-21T01:27:09;102115.81;;;25.16;45.60
62600;BME280;48671;48.922;2.346;2023-08-21T01:29:35;102109.41;;;25.18;45.45
62600;BME280;48671;48.922;2.346;2023-08-21T01:32:27;102111.91;;;25.20;45.46
62600;BME280;48671;48.922;2.346;2023-08-21T01:34:55;102107.22;;;25.12;45.67
62600;BME280;48671;48.922;2.346;2023-08-21T01:37:21;102111.44;;;25.15;45.99
62600;BME280;48671;48.922;2.346;2023-08-21T01:39:47;102098.69;;;25.07;45.57
62600;BME280;48671;48.922;2.346;2023-08-21T01:42:12;102105.84;;;25.07;45.48
62600;BME280;48671;48.922;2.346;2023-08-21T01:44:38;102112.00;;;25.07;45.97
62600;BME280;48671;48.922;2.346;2023-08-21T01:47:03;102112.41;;;25.14;45.80
62600;BME280;48671;48.922;2.346;2023-08-21T01:49:30;102115.66;;;25.17;45.97
62600;BME280;48671;48.922;2.346;2023-08-21T01:51:55;102109.88;;;25.12;45.73
62600;BME280;48671;48.922;2.346;2023-08-21T01:54:21;102114.13;;;25.15;45.63
62600;BME280;48671;48.922;2.346;2023-08-21T01:56:46;102113.97;;;25.16;45.70
62600;BME280;48671;48.922;2.346;2023-08-21T01:59:11;102112.66;;;25.22;45.59
62600;BME280;48671;48.922;2.346;2023-08-21T02:01:36;102115.19;;;25.23;46.41
62600;BME280;48671;48.922;2.346;2023-08-21T02:04:02;102109.84;;;25.23;45.87
62600;BME280;48671;48.922;2.346;2023-08-21T02:06:27;102114.81;;;25.17;45.93
62600;BME280;48671;48.922;2.346;2023-08-21T02:08:52;102108.13;;;25.11;45.55
62600;BME280;48671;48.922;2.346;2023-08-21T02:11:18;102117.56;;;25.04;46.25
62600;BME280;48671;48.922;2.346;2023-08-21T02:13:43;102106.44;;;24.99;46.27
62600;BME280;48671;48.922;2.346;2023-08-21T02:16:08;102113.44;;;25.00;46.05
62600;BME280;48671;48.922;2.346;2023-08-21T02:18:34;102115.13;;;25.01;46.12
62600;BME280;48671;48.922;2.346;2023-08-21T02:21:02;102113.94;;;25.05;46.05
62600;BME280;48671;48.922;2.346;2023-08-21T02:23:28;102108.38;;;24.97;46.04
62600;BME280;48671;48.922;2.346;2023-08-21T02:25:54;102108.38;;;24.97;45.62
62600;BME280;48671;48.922;2.346;2023-08-21T02:28:19;102107.88;;;24.92;46.43
62600;BME280;48671;48.922;2.346;2023-08-21T02:30:45;102104.72;;;24.87;46.32
62600;BME280;48671;48.922;2.346;2023-08-21T02:33:10;102099.78;;;24.82;46.63
62600;BME280;48671;48.922;2.346;2023-08-21T02:35:36;102104.72;;;24.87;46.55
62600;BME280;48671;48.922;2.346;2023-08-21T02:38:01;102100.47;;;24.84;46.56
62600;BME280;48671;48.922;2.346;2023-08-21T02:40:27;102104.34;;;24.80;46.66
62600;BME280;48671;48.922;2.346;2023-08-21T02:42:52;102095.63;;;24.78;46.51
62600;BME280;48671;48.922;2.346;2023-08-21T02:45:17;102101.19;;;24.75;46.77
62600;BME280;48671;48.922;2.346;2023-08-21T02:47:44;102102.75;;;24.77;46.44
62600;BME280;48671;48.922;2.346;2023-08-21T02:50:10;102100.69;;;24.70;46.75
62600;BME280;48671;48.922;2.346;2023-08-21T02:52:36;102104.44;;;24.67;46.67
62600;BME280;48671;48.922;2.346;2023-08-21T02:55:03;102108.69;;;24.70;46.52
62600;BME280;48671;48.922;2.346;2023-08-21T02:57:29;102106.50;;;24.64;46.89
62600;BME280;48671;48.922;2.346;2023-08-21T02:59:55;102116.06;;;24.66;46.83
62600;BME280;48671;48.922;2.346;2023-08-21T03:02:20;102099.94;;;24.57;47.19
62600;BME280;48671;48.922;2.346;2023-08-21T03:04:46;102108.88;;;24.56;47.30
62600;BME280;48671;48.922;2.346;2023-08-21T03:07:11;102105.38;;;24.55;46.94
62600;BME280;48671;48.922;2.346;2023-08-21T03:09:37;102116.47;;;24.49;47.19
62600;BME280;48671;48.922;2.346;2023-08-21T03:12:03;102111.78;;;24.52;47.32
62600;BME280;48671;48.922;2.346;2023-08-21T03:14:29;102099.06;;;24.45;47.25
62600;BME280;48671;48.922;2.346;2023-08-21T03:16:54;102112.75;;;24.51;47.22
62600;BME280;48671;48.922;2.346;2023-08-21T03:19:20;102102.47;;;24.47;47.54
62600;BME280;48671;48.922;2.346;2023-08-21T03:21:45;102102.56;;;24.45;47.52
62600;BME280;48671;48.922;2.346;2023-08-21T03:24:10;102087.16;;;24.38;47.63
62600;BME280;48671;48.922;2.346;2023-08-21T03:26:36;102100.72;;;24.46;47.52
62600;BME280;48671;48.922;2.346;2023-08-21T03:29:01;102109.69;;;24.45;48.14
62600;BME280;48671;48.922;2.346;2023-08-21T03:31:27;102105.34;;;24.44;47.32
62600;BME280;48671;48.922;2.346;2023-08-21T03:33:52;102103.94;;;24.38;47.42
62600;BME280;48671;48.922;2.346;2023-08-21T03:36:17;102115.66;;;24.36;47.68
62600;BME280;48671;48.922;2.346;2023-08-21T03:38:44;102104.25;;;24.22;47.65
62600;BME280;48671;48.922;2.346;2023-08-21T03:41:09;102100.88;;;24.20;47.62
62600;BME280;48671;48.922;2.346;2023-08-21T03:43:34;102103.63;;;24.19;47.62
62600;BME280;48671;48.922;2.346;2023-08-21T03:46:00;102097.59;;;24.17;47.84
62600;BME280;48671;48.922;2.346;2023-08-21T03:48:25;102114.88;;;24.22;47.47
62600;BME280;48671;48.922;2.346;2023-08-21T03:50:50;102122.16;;;24.20;47.84
62600;BME280;48671;48.922;2.346;2023-08-21T03:53:16;102122.88;;;24.22;48.24
62600;BME280;48671;48.922;2.346;2023-08-21T03:55:41;102114.44;;;24.28;47.96
62600;BME280;48671;48.922;2.346;2023-08-21T03:58:06;102110.09;;;24.27;48.05
62600;BME280;48671;48.922;2.346;2023-08-21T04:00:31;102109.13;;;24.28;47.67
62600;BME280;48671;48.922;2.346;2023-08-21T04:02:57;102110.19;;;24.26;47.70
62600;BME280;48671;48.922;2.346;2023-08-21T04:05:23;102115.66;;;24.36;47.91
62600;BME280;48671;48.922;2.346;2023-08-21T04:07:48;102113.22;;;24.33;47.33
62600;BME280;48671;48.922;2.346;2023-08-21T04:10:13;102111.91;;;24.27;47.26
62600;BME280;48671;48.922;2.346;2023-08-21T04:12:39;102112.13;;;24.24;47.54
62600;BME280;48671;48.922;2.346;2023-08-21T04:15:05;102110.53;;;24.21;47.53
62600;BME280;48671;48.922;2.346;2023-08-21T04:17:31;102128.81;;;24.26;47.60
62600;BME280;48671;48.922;2.346;2023-08-21T04:19:56;102122.63;;;24.25;47.28
62600;BME280;48671;48.922;2.346;2023-08-21T04:22:22;102131.47;;;24.26;47.06
62600;BME280;48671;48.922;2.346;2023-08-21T04:24:47;102127.03;;;24.26;47.38
62600;BME280;48671;48.922;2.346;2023-08-21T04:27:12;102132.22;;;24.28;47.57
62600;BME280;48671;48.922;2.346;2023-08-21T04:29:38;102140.31;;;24.26;47.33
62600;BME280;48671;48.922;2.346;2023-08-21T04:32:04;102138.59;;;24.25;47.05
62600;BME280;48671;48.922;2.346;2023-08-21T04:34:32;102136.16;;;24.22;47.40
62600;BME280;48671;48.922;2.346;2023-08-21T04:36:57;102131.81;;;24.21;46.76
62600;BME280;48671;48.922;2.346;2023-08-21T04:39:22;102141.53;;;24.10;47.10
62600;BME280;48671;48.922;2.346;2023-08-21T04:41:48;102133.16;;;24.03;47.64
62600;BME280;48671;48.922;2.346;2023-08-21T04:44:13;102142.41;;;24.10;47.72
62600;BME280;48671;48.922;2.346;2023-08-21T04:46:38;102148.03;;;24.05;47.94
62600;BME280;48671;48.922;2.346;2023-08-21T04:49:03;102144.75;;;24.02;47.83
62600;BME280;48671;48.922;2.346;2023-08-21T04:51:29;102147.56;;;24.00;47.80
62600;BME280;48671;48.922;2.346;2023-08-21T04:53:54;102146.91;;;23.97;47.46
62600;BME280;48671;48.922;2.346;2023-08-21T04:56:19;102146.06;;;23.96;47.73
62600;BME280;48671;48.922;2.346;2023-08-21T04:58:45;102160.09;;;23.98;47.86
62600;BME280;48671;48.922;2.346;2023-08-21T05:01:10;102150.44;;;23.97;47.68
62600;BME280;48671;48.922;2.346;2023-08-21T05:03:35;102144.03;;;24.00;48.02
62600;BME280;48671;48.922;2.346;2023-08-21T05:06:01;102140.28;;;24.02;47.81
62600;BME280;48671;48.922;2.346;2023-08-21T05:08:26;102154.72;;;24.11;47.82
62600;BME280;48671;48.922;2.346;2023-08-21T05:10:58;102156.41;;;24.12;48.08
62600;BME280;48671;48.922;2.346;2023-08-21T05:13:24;102160.78;;;24.13;47.68
62600;BME280;48671;48.922;2.346;2023-08-21T05:15:54;102159.00;;;24.14;47.92
62600;BME280;48671;48.922;2.346;2023-08-21T05:18:20;102154.59;;;24.13;48.63
62600;BME280;48671;48.922;2.346;2023-08-21T05:20:47;102150.38;;;24.10;48.06
62600;BME280;48671;48.922;2.346;2023-08-21T05:23:12;102148.28;;;24.02;48.02
62600;BME280;48671;48.922;2.346;2023-08-21T05:25:38;102158.28;;;23.99;47.30
62600;BME280;48671;48.922;2.346;2023-08-21T05:28:04;102164.03;;;23.93;47.89
62600;BME280;48671;48.922;2.346;2023-08-21T05:30:29;102152.06;;;23.87;47.59
62600;BME280;48671;48.922;2.346;2023-08-21T05:32:55;102160.66;;;23.91;48.18
62600;BME280;48671;48.922;2.346;2023-08-21T05:35:20;102160.72;;;24.02;47.86
62600;BME280;48671;48.922;2.346;2023-08-21T05:37:45;102171.13;;;24.05;47.70
62600;BME280;48671;48.922;2.346;2023-08-21T05:40:11;102156.16;;;24.04;47.48
62600;BME280;48671;48.922;2.346;2023-08-21T05:42:37;102174.31;;;24.10;47.82
62600;BME280;48671;48.922;2.346;2023-08-21T05:45:03;102166.75;;;24.17;47.43
62600;BME280;48671;48.922;2.346;2023-08-21T05:47:28;102163.16;;;24.05;47.13
62600;BME280;48671;48.922;2.346;2023-08-21T05:49:53;102167.72;;;24.03;47.56
62600;BME280;48671;48.922;2.346;2023-08-21T05:52:19;102171.88;;;24.07;47.51
62600;BME280;48671;48.922;2.346;2023-08-21T05:54:44;102171.94;;;24.18;48.20
62600;BME280;48671;48.922;2.346;2023-08-21T05:57:10;102162.66;;;24.24;47.59
62600;BME280;48671;48.922;2.346;2023-08-21T05:59:46;102179.00;;;24.43;47.42
62600;BME280;48671;48.922;2.346;2023-08-21T06:02:12;102175.97;;;24.48;47.05
62600;BME280;48671;48.922;2.346;2023-08-21T06:04:39;102170.56;;;24.49;46.95
62600;BME280;48671;48.922;2.346;2023-08-21T06:07:05;102178.81;;;24.58;46.81
62600;BME280;48671;48.922;2.346;2023-08-21T06:09:30;102174.84;;;24.63;46.21
62600;BME280;48671;48.922;2.346;2023-08-21T06:11:59;102181.53;;;24.69;45.91
62600;BME280;48671;48.922;2.346;2023-08-21T06:14:25;102184.66;;;24.63;46.06
62600;BME280;48671;48.922;2.346;2023-08-21T06:16:56;102176.66;;;24.63;46.14
62600;BME280;48671;48.922;2.346;2023-08-21T06:19:21;102194.31;;;24.64;46.10
62600;BME280;48671;48.922;2.346;2023-08-21T06:21:46;102189.25;;;24.72;45.84
62600;BME280;48671;48.922;2.346;2023-08-21T06:24:12;102189.16;;;24.73;45.64
62600;BME280;48671;48.922;2.346;2023-08-21T06:26:37;102189.16;;;24.73;45.92
62600;BME280;48671;48.922;2.346;2023-08-21T06:29:02;102201.47;;;24.74;45.57
62600;BME280;48671;48.922;2.346;2023-08-21T06:31:27;102196.16;;;24.74;45.77
62600;BME280;48671;48.922;2.346;2023-08-21T06:33:53;102190.38;;;24.81;46.01
62600;BME280;48671;48.922;2.346;2023-08-21T06:36:19;102195.47;;;24.84;45.45
62600;BME280;48671;48.922;2.346;2023-08-21T06:38:44;102185.34;;;24.89;45.53
62600;BME280;48671;48.922;2.346;2023-08-21T06:41:10;102184.47;;;24.88;45.25
62600;BME280;48671;48.922;2.346;2023-08-21T06:43:35;102187.41;;;24.96;45.14
62600;BME280;48671;48.922;2.346;2023-08-21T06:46:01;102178.81;;;24.93;45.30
62600;BME280;48671;48.922;2.346;2023-08-21T06:48:26;102184.13;;;24.93;45.26
62600;BME280;48671;48.922;2.346;2023-08-21T06:50:52;102185.09;;;24.92;45.09
62600;BME280;48671;48.922;2.346;2023-08-21T06:53:17;102194.53;;;24.96;45.10
62600;BME280;48671;48.922;2.346;2023-08-21T06:55:44;102197.16;;;24.85;44.98
62600;BME280;48671;48.922;2.346;2023-08-21T06:58:10;102189.31;;;24.94;45.29
62600;BME280;48671;48.922;2.346;2023-08-21T07:00:35;102186.56;;;25.07;45.10
62600;BME280;48671;48.922;2.346;2023-08-21T07:03:01;102199.13;;;25.18;45.13
62600;BME280;48671;48.922;2.346;2023-08-21T07:05:28;102194.50;;;25.20;44.91
62600;BME280;48671;48.922;2.346;2023-08-21T07:07:53;102194.88;;;25.27;44.93
62600;BME280;48671;48.922;2.346;2023-08-21T07:10:20;102192.72;;;25.32;44.70
62600;BME280;48671;48.922;2.346;2023-08-21T07:12:45;102186.53;;;25.42;44.66
62600;BME280;48671;48.922;2.346;2023-08-21T07:15:10;102187.16;;;25.57;44.76
62600;BME280;48671;48.922;2.346;2023-08-21T07:17:36;102192.09;;;25.62;44.72
62600;BME280;48671;48.922;2.346;2023-08-21T07:20:01;102203.88;;;25.71;44.27
62600;BME280;48671;48.922;2.346;2023-08-21T07:22:29;102203.50;;;25.75;44.16
62600;BME280;48671;48.922;2.346;2023-08-21T07:24:54;102192.59;;;25.78;44.16
62600;BME280;48671;48.922;2.346;2023-08-21T07:27:20;102193.72;;;25.87;44.11
62600;BME280;48671;48.922;2.346;2023-08-21T07:29:45;102197.91;;;25.89;43.42
62600;BME280;48671;48.922;2.346;2023-08-21T07:32:10;102198.53;;;25.71;43.97
62600;BME280;48671;48.922;2.346;2023-08-21T07:34:36;102204.34;;;25.76;44.60
62600;BME280;48671;48.922;2.346;2023-08-21T07:37:01;102210.06;;;25.94;43.83
62600;BME280;48671;48.922;2.346;2023-08-21T07:39:26;102208.00;;;25.97;44.03
62600;BME280;48671;48.922;2.346;2023-08-21T07:41:51;102202.06;;;25.94;43.74
62600;BME280;48671;48.922;2.346;2023-08-21T07:44:18;102215.50;;;25.92;44.29
62600;BME280;48671;48.922;2.346;2023-08-21T07:46:44;102214.50;;;25.93;43.85
62600;BME280;48671;48.922;2.346;2023-08-21T07:49:09;102226.41;;;26.00;43.77
62600;BME280;48671;48.922;2.346;2023-08-21T07:51:35;102219.84;;;26.04;43.81
62600;BME280;48671;48.922;2.346;2023-08-21T07:54:00;102216.59;;;25.89;44.13
62600;BME280;48671;48.922;2.346;2023-08-21T07:56:26;102215.75;;;25.89;43.65
62600;BME280;48671;48.922;2.346;2023-08-21T07:58:51;102217.44;;;26.01;43.81
62600;BME280;48671;48.922;2.346;2023-08-21T08:01:16;102218.28;;;26.13;43.56
62600;BME280;48671;48.922;2.346;2023-08-21T08:03:42;102217.63;;;26.21;43.84
62600;BME280;48671;48.922;2.346;2023-08-21T08:06:07;102216.41;;;26.36;43.50
62600;BME280;48671;48.922;2.346;2023-08-21T08:08:32;102210.53;;;26.42;43.59
62600;BME280;48671;48.922;2.346;2023-08-21T08:11:02;102213.06;;;26.55;43.28
62600;BME280;48671;48.922;2.346;2023-08-21T08:13:28;102201.88;;;26.61;43.48
62600;BME280;48671;48.922;2.346;2023-08-21T08:15:53;102220.13;;;26.77;42.37
62600;BME280;48671;48.922;2.346;2023-08-21T08:18:19;102220.34;;;26.85;42.11
62600;BME280;48671;48.922;2.346;2023-08-21T08:20:44;102206.34;;;26.93;42.07
62600;BME280;48671;48.922;2.346;2023-08-21T08:23:09;102216.06;;;27.36;41.54
62600;BME280;48671;48.922;2.346;2023-08-21T08:25:35;102215.88;;;27.89;40.66
62600;BME280;48671;48.922;2.346;2023-08-21T08:28:00;102206.84;;;28.40;40.27
62600;BME280;48671;48.922;2.346;2023-08-21T08:30:25;102215.16;;;28.85;39.32
62600;BME280;48671;48.922;2.346;2023-08-21T08:32:51;102213.69;;;29.30;38.84
62600;BME280;48671;48.922;2.346;2023-08-21T08:35:16;102209.13;;;29.50;37.81
62600;BME280;48671;48.922;2.346;2023-08-21T08:37:42;102206.81;;;29.65;36.66
62600;BME280;48671;48.922;2.346;2023-08-21T08:40:08;102205.34;;;29.80;37.17
62600;BME280;48671;48.922;2.346;2023-08-21T08:42:35;102201.28;;;29.94;36.98
62600;BME280;48671;48.922;2.346;2023-08-21T08:45:03;102204.84;;;30.12;37.08
62600;BME280;48671;48.922;2.346;2023-08-21T08:47:31;102200.28;;;30.22;36.51
62600;BME280;48671;48.922;2.346;2023-08-21T08:49:58;102193.72;;;30.07;36.55
62600;BME280;48671;48.922;2.346;2023-08-21T08:52:26;102205.38;;;30.25;36.16
62600;BME280;48671;48.922;2.346;2023-08-21T08:54:53;102201.91;;;30.33;35.73
62600;BME280;48671;48.922;2.346;2023-08-21T08:57:20;102205.28;;;30.35;36.49
62600;BME280;48671;48.922;2.346;2023-08-21T08:59:46;102197.59;;;30.40;36.33
62600;BME280;48671;48.922;2.346;2023-08-21T09:02:11;102194.25;;;30.38;36.23
62600;BME280;48671;48.922;2.346;2023-08-21T09:04:37;102203.53;;;30.26;36.38
62600;BME280;48671;48.922;2.346;2023-08-21T09:07:09;102197.47;;;30.14;36.00
62600;BME280;48671;48.922;2.346;2023-08-21T09:09:38;102201.84;;;29.97;36.86
62600;BME280;48671;48.922;2.346;2023-08-21T09:12:10;102203.63;;;29.79;37.22
62600;BME280;48671;48.922;2.346;2023-08-21T09:14:37;102188.34;;;29.52;37.70
62600;BME280;48671;48.922;2.346;2023-08-21T09:17:02;102179.78;;;29.38;37.27
62600;BME280;48671;48.922;2.346;2023-08-21T09:19:29;102179.81;;;29.29;37.41
62600;BME280;48671;48.922;2.346;2023-08-21T09:21:54;102184.63;;;29.25;38.33
62600;BME280;48671;48.922;2.346;2023-08-21T09:24:19;102189.16;;;29.25;37.78
62600;BME280;48671;48.922;2.346;2023-08-21T09:26:44;102188.41;;;29.32;37.66
62600;BME280;48671;48.922;2.346;2023-08-21T09:29:10;102181.38;;;29.31;37.74
62600;BME280;48671;48.922;2.346;2023-08-21T09:31:36;102183.03;;;29.42;38.60
62600;BME280;48671;48.922;2.346;2023-08-21T09:34:03;102181.69;;;29.56;37.82
62600;BME280;48671;48.922;2.346;2023-08-21T09:36:33;102175.34;;;29.57;37.15
62600;BME280;48671;48.922;2.346;2023-08-21T09:38:59;102177.22;;;29.47;37.37
62600;BME280;48671;48.922;2.346;2023-08-21T09:41:25;102176.78;;;29.51;37.81
62600;BME280;48671;48.922;2.346;2023-08-21T09:43:50;102171.22;;;29.62;37.54
62600;BME280;48671;48.922;2.346;2023-08-21T09:46:26;102175.94;;;29.78;36.93
62600;BME280;48671;48.922;2.346;2023-08-21T09:48:53;102181.56;;;29.85;36.82
62600;BME280;48671;48.922;2.346;2023-08-21T09:51:19;102168.91;;;29.77;36.93
62600;BME280;48671;48.922;2.346;2023-08-21T09:53:47;102161.63;;;29.70;37.09
62600;BME280;48671;48.922;2.346;2023-08-21T09:56:14;102172.84;;;29.83;37.03
62600;BME280;48671;48.922;2.346;2023-08-21T09:58:39;102171.47;;;29.97;36.66
62600;BME280;48671;48.922;2.346;2023-08-21T10:01:06;102169.72;;;30.05;36.63
62600;BME280;48671;48.922;2.346;2023-08-21T10:03:40;102173.75;;;30.19;36.84
62600;BME280;48671;48.922;2.346;2023-08-21T10:06:08;102169.69;;;30.33;36.67
62600;BME280;48671;48.922;2.346;2023-08-21T10:08:38;102167.94;;;30.42;36.70
62600;BME280;48671;48.922;2.346;2023-08-21T10:11:07;102174.41;;;30.57;36.75
62600;BME280;48671;48.922;2.346;2023-08-21T10:13:34;102169.03;;;30.57;36.66
62600;BME280;48671;48.922;2.346;2023-08-21T10:16:01;102161.09;;;30.73;36.26
62600;BME280;48671;48.922;2.346;2023-08-21T10:18:32;102162.34;;;30.79;36.04
62600;BME280;48671;48.922;2.346;2023-08-21T10:21:14;102155.66;;;30.83;35.89
62600;BME280;48671;48.922;2.346;2023-08-21T10:23:40;102151.78;;;31.04;36.01
62600;BME280;48671;48.922;2.346;2023-08-21T10:26:07;102144.13;;;31.17;35.21
62600;BME280;48671;48.922;2.346;2023-08-21T10:31:40;102154.50;;;31.12;35.49
62600;BME280;48671;48.922;2.346;2023-08-21T10:34:09;102152.66;;;31.12;35.46
62600;BME280;48671;48.922;2.346;2023-08-21T10:39:17;102149.22;;;31.28;35.12
62600;BME280;48671;48.922;2.346;2023-08-21T10:42:04;102141.66;;;31.32;34.70
62600;BME280;48671;48.922;2.346;2023-08-21T10:44:49;102133.34;;;31.43;35.14
62600;BME280;48671;48.922;2.346;2023-08-21T10:47:22;102135.22;;;31.59;34.56
62600;BME280;48671;48.922;2.346;2023-08-21T10:49:53;102134.63;;;31.73;34.73
62600;BME280;48671;48.922;2.346;2023-08-21T10:52:31;102130.31;;;31.97;32.93
62600;BME280;48671;48.922;2.346;2023-08-21T10:54:59;102130.50;;;31.95;32.43
62600;BME280;48671;48.922;2.346;2023-08-21T10:57:27;102124.59;;;32.00;33.33
62600;BME280;48671;48.922;2.346;2023-08-21T11:02:20;102120.38;;;31.97;33.49
62600;BME280;48671;48.922;2.346;2023-08-21T11:04:46;102119.03;;;32.01;32.93
62600;BME280;48671;48.922;2.346;2023-08-21T11:07:11;102117.56;;;32.15;32.88
62600;BME280;48671;48.922;2.346;2023-08-21T11:09:38;102118.22;;;32.33;33.07
62600;BME280;48671;48.922;2.346;2023-08-21T11:12:08;102112.34;;;32.62;32.36
62600;BME280;48671;48.922;2.346;2023-08-21T11:14:34;102114.34;;;32.77;31.86
62600;BME280;48671;48.922;2.346;2023-08-21T11:17:00;102114.94;;;32.95;32.26
62600;BME280;48671;48.922;2.346;2023-08-21T11:19:26;102109.06;;;32.92;31.15
62600;BME280;48671;48.922;2.346;2023-08-21T11:21:51;102117.16;;;32.92;30.23
62600;BME280;48671;48.922;2.346;2023-08-21T11:24:16;102107.56;;;32.89;30.32
62600;BME280;48671;48.922;2.346;2023-08-21T11:26:42;102112.59;;;32.92;30.77
62600;BME280;48671;48.922;2.346;2023-08-21T11:29:07;102110.06;;;33.07;30.89
62600;BME280;48671;48.922;2.346;2023-08-21T11:31:33;102121.28;;;33.27;30.33
62600;BME280;48671;48.922;2.346;2023-08-21T11:33:58;102104.41;;;33.33;29.98
62600;BME280;48671;48.922;2.346;2023-08-21T11:36:23;102107.22;;;33.40;30.44
62600;BME280;48671;48.922;2.346;2023-08-21T11:38:59;102107.19;;;33.56;30.69
62600;BME280;48671;48.922;2.346;2023-08-21T11:41:30;102105.44;;;33.63;29.93
62600;BME280;48671;48.922;2.346;2023-08-21T11:44:02;102112.06;;;33.84;30.14
62600;BME280;48671;48.922;2.346;2023-08-21T11:46:28;102099.81;;;33.73;28.81
62600;BME280;48671;48.922;2.346;2023-08-21T11:48:54;102101.34;;;33.67;29.14
62600;BME280;48671;48.922;2.346;2023-08-21T11:51:19;102097.59;;;33.76;29.48
62600;BME280;48671;48.922;2.346;2023-08-21T11:53:47;102101.31;;;33.98;30.11
62600;BME280;48671;48.922;2.346;2023-08-21T11:56:16;102090.84;;;34.03;29.12
62600;BME280;48671;48.922;2.346;2023-08-21T11:58:46;102091.50;;;34.06;28.92
62600;BME280;48671;48.922;2.346;2023-08-21T12:01:18;102104.66;;;34.09;28.81
62600;BME280;48671;48.922;2.346;2023-08-21T12:03:44;102101.75;;;34.10;29.54
62600;BME280;48671;48.922;2.346;2023-08-21T12:06:11;102103.56;;;34.18;28.92
62600;BME280;48671;48.922;2.346;2023-08-21T12:08:38;102097.34;;;34.17;29.38
62600;BME280;48671;48.922;2.346;2023-08-21T12:11:03;102094.25;;;34.20;28.79
62600;BME280;48671;48.922;2.346;2023-08-21T12:13:30;102087.09;;;34.28;29.44
62600;BME280;48671;48.922;2.346;2023-08-21T12:15:55;102093.56;;;34.41;29.66
62600;BME280;48671;48.922;2.346;2023-08-21T12:18:21;102081.44;;;34.37;28.79
62600;BME280;48671;48.922;2.346;2023-08-21T12:20:46;102072.81;;;34.19;29.63
62600;BME280;48671;48.922;2.346;2023-08-21T12:23:11;102076.50;;;34.41;29.31
62600;BME280;48671;48.922;2.346;2023-08-21T12:25:37;102067.81;;;34.54;29.46
62600;BME280;48671;48.922;2.346;2023-08-21T12:28:02;102077.78;;;34.68;29.08
62600;BME280;48671;48.922;2.346;2023-08-21T12:30:28;102074.78;;;34.63;28.88
62600;BME280;48671;48.922;2.346;2023-08-21T12:32:53;102069.13;;;34.49;29.21
62600;BME280;48671;48.922;2.346;2023-08-21T12:35:18;102073.88;;;34.70;29.14
62600;BME280;48671;48.922;2.346;2023-08-21T12:37:44;102065.00;;;34.91;28.79
62600;BME280;48671;48.922;2.346;2023-08-21T12:40:09;102071.06;;;35.08;27.94
62600;BME280;48671;48.922;2.346;2023-08-21T12:42:35;102074.06;;;35.13;27.98
62600;BME280;48671;48.922;2.346;2023-08-21T12:45:00;102067.81;;;35.13;27.76
62600;BME280;48671;48.922;2.346;2023-08-21T12:47:25;102062.03;;;35.16;27.72
62600;BME280;48671;48.922;2.346;2023-08-21T12:49:50;102057.31;;;35.25;28.29
62600;BME280;48671;48.922;2.346;2023-08-21T12:52:16;102062.34;;;35.28;27.62
62600;BME280;48671;48.922;2.346;2023-08-21T12:54:41;102062.03;;;35.37;28.20